sensor_id;sensor_type;location;lat;lon;timestamp;P1;durP1;ratioP1;P2;durP2;ratioP2
52962;SDS011;38827;53.024;6.596;2024-01-07T00:01:25;16.45;;;10.25;;
52962;SDS011;38827;53.024;6.596;2024-01-07T00:04:09;18.98;;;11.35;;
52962;SDS011;38827;53.024;6.596;2024-01-07T00:06:40;17.50;;;11.23;;
52962;SDS011;38827;53.024;6.596;2024-01-07T00:11:49;16.70;;;10.90;;
52962;SDS011;38827;53.024;6.596;2024-01-07T00:14:15;21.83;;;11.43;;
52962;SDS011;38827;53.024;6.596;2024-01-07T00:16:42;13.07;;;8.53;;
52962;SDS011;38827;53.024;6.596;2024-01-07T00:19:29;21.33;;;11.77;;
52962;SDS011;38827;53.024;6.596;2024-01-07T00:21:56;19.08;;;11.98;;
52962;SDS011;38827;53.024;6.596;2024-01-07T00:24:25;16.45;;;11.40;;
52962;SDS011;38827;53.024;6.596;2024-01-07T00:26:56;19.52;;;12.50;;
52962;SDS011;38827;53.024;6.596;2024-01-07T00:32:12;17.15;;;10.63;;
52962;SDS011;38827;53.024;6.596;2024-01-07T00:34:50;23.53;;;12.77;;
52962;SDS011;38827;53.024;6.596;2024-01-07T00:37:15;16.88;;;11.10;;
52962;SDS011;38827;53.024;6.596;2024-01-07T00:39:41;18.10;;;11.35;;
52962;SDS011;38827;53.024;6.596;2024-01-07T00:42:09;16.48;;;11.05;;
52962;SDS011;38827;53.024;6.596;2024-01-07T00:44:34;16.20;;;10.50;;
52962;SDS011;38827;53.024;6.596;2024-01-07T00:47:02;17.88;;;10.90;;
52962;SDS011;38827;53.024;6.596;2024-01-07T00:49:28;15.02;;;10.63;;
52962;SDS011;38827;53.024;6.596;2024-01-07T00:51:54;16.93;;;10.50;;
52962;SDS011;38827;53.024;6.596;2024-01-07T00:54:19;15.33;;;10.60;;
52962;SDS011;38827;53.024;6.596;2024-01-07T00:56:45;13.57;;;10.37;;
52962;SDS011;38827;53.024;6.596;2024-01-07T00:59:11;15.52;;;10.48;;
52962;SDS011;38827;53.024;6.596;2024-01-07T01:01:37;13.98;;;10.30;;
52962;SDS011;38827;53.024;6.596;2024-01-07T01:04:03;14.90;;;10.00;;
52962;SDS011;38827;53.024;6.596;2024-01-07T01:06:28;15.35;;;9.88;;
52962;SDS011;38827;53.024;6.596;2024-01-07T01:08:54;15.52;;;10.40;;
52962;SDS011;38827;53.024;6.596;2024-01-07T01:11:28;15.05;;;9.43;;
52962;SDS011;38827;53.024;6.596;2024-01-07T01:13:54;15.93;;;10.75;;
52962;SDS011;38827;53.024;6.596;2024-01-07T01:16:20;11.73;;;7.78;;
52962;SDS011;38827;53.024;6.596;2024-01-07T01:18:55;16.80;;;10.70;;
52962;SDS011;38827;53.024;6.596;2024-01-07T01:21:20;17.08;;;10.80;;
52962;SDS011;38827;53.024;6.596;2024-01-07T01:24:01;14.70;;;10.15;;
52962;SDS011;38827;53.024;6.596;2024-01-07T01:26:27;16.75;;;10.65;;
52962;SDS011;38827;53.024;6.596;2024-01-07T01:28:53;14.63;;;10.10;;
52962;SDS011;38827;53.024;6.596;2024-01-07T01:31:18;16.48;;;10.50;;
52962;SDS011;38827;53.024;6.596;2024-01-07T01:33:44;15.57;;;10.18;;
52962;SDS011;38827;53.024;6.596;2024-01-07T01:36:10;17.88;;;11.02;;
52962;SDS011;38827;53.024;6.596;2024-01-07T01:38:35;14.25;;;10.35;;
52962;SDS011;38827;53.024;6.596;2024-01-07T01:41:01;15.15;;;10.05;;
52962;SDS011;38827;53.024;6.596;2024-01-07T01:43:27;16.48;;;10.13;;
52962;SDS011;38827;53.024;6.596;2024-01-07T02:16:48;11.75;;;8.10;;
52962;SDS011;38827;53.024;6.596;2024-01-07T02:19:16;13.45;;;8.80;;
52962;SDS011;38827;53.024;6.596;2024-01-07T02:22:47;10.93;;;7.60;;
52962;SDS011;38827;53.024;6.596;2024-01-07T02:25:28;12.35;;;8.65;;
52962;SDS011;38827;53.024;6.596;2024-01-07T02:27:54;12.90;;;8.52;;
52962;SDS011;38827;53.024;6.596;2024-01-07T02:30:22;13.57;;;8.50;;
52962;SDS011;38827;53.024;6.596;2024-01-07T02:32:48;13.10;;;8.25;;
52962;SDS011;38827;53.024;6.596;2024-01-07T02:35:23;13.82;;;7.85;;
52962;SDS011;38827;53.024;6.596;2024-01-07T02:38:04;13.38;;;7.68;;
52962;SDS011;38827;53.024;6.596;2024-01-07T02:40:30;12.85;;;7.90;;
52962;SDS011;38827;53.024;6.596;2024-01-07T02:43:02;10.25;;;7.55;;
52962;SDS011;38827;53.024;6.596;2024-01-07T02:45:28;10.25;;;7.53;;
52962;SDS011;38827;53.024;6.596;2024-01-07T02:50:20;11.47;;;7.47;;
52962;SDS011;38827;53.024;6.596;2024-01-07T02:52:46;12.65;;;7.30;;
52962;SDS011;38827;53.024;6.596;2024-01-07T02:55:11;10.73;;;6.85;;
52962;SDS011;38827;53.024;6.596;2024-01-07T02:57:37;10.93;;;7.33;;
52962;SDS011;38827;53.024;6.596;2024-01-07T03:00:03;12.00;;;7.00;;
52962;SDS011;38827;53.024;6.596;2024-01-07T03:02:30;9.75;;;6.40;;
52962;SDS011;38827;53.024;6.596;2024-01-07T03:04:56;7.83;;;5.87;;
52962;SDS011;38827;53.024;6.596;2024-01-07T03:07:21;10.88;;;6.55;;
52962;SDS011;38827;53.024;6.596;2024-01-07T03:09:48;9.30;;;6.27;;
52962;SDS011;38827;53.024;6.596;2024-01-07T03:12:17;10.38;;;6.25;;
52962;SDS011;38827;53.024;6.596;2024-01-07T03:14:43;9.10;;;6.10;;
52962;SDS011;38827;53.024;6.596;2024-01-07T03:17:10;8.07;;;5.57;;
52962;SDS011;38827;53.024;6.596;2024-01-07T03:19:39;8.95;;;6.38;;
52962;SDS011;38827;53.024;6.596;2024-01-07T03:22:06;10.15;;;6.20;;
52962;SDS011;38827;53.024;6.596;2024-01-07T03:24:32;10.55;;;5.97;;
52962;SDS011;38827;53.024;6.596;2024-01-07T03:26:58;10.30;;;6.25;;
52962;SDS011;38827;53.024;6.596;2024-01-07T03:29:24;11.00;;;5.93;;
52962;SDS011;38827;53.024;6.596;2024-01-07T03:31:50;8.20;;;5.80;;
52962;SDS011;38827;53.024;6.596;2024-01-07T03:34:33;8.38;;;5.50;;
52962;SDS011;38827;53.024;6.596;2024-01-07T03:37:10;8.88;;;5.20;;
52962;SDS011;38827;53.024;6.596;2024-01-07T03:39:46;6.68;;;5.07;;
52962;SDS011;38827;53.024;6.596;2024-01-07T03:42:12;9.43;;;6.03;;
52962;SDS011;38827;53.024;6.596;2024-01-07T03:44:38;8.77;;;6.17;;
52962;SDS011;38827;53.024;6.596;2024-01-07T03:50:20;9.48;;;5.63;;
52962;SDS011;38827;53.024;6.596;2024-01-07T03:52:45;8.90;;;6.00;;
52962;SDS011;38827;53.024;6.596;2024-01-07T03:55:12;7.78;;;4.97;;
52962;SDS011;38827;53.024;6.596;2024-01-07T04:00:09;9.05;;;5.57;;
52962;SDS011;38827;53.024;6.596;2024-01-07T04:02:35;8.27;;;5.28;;
52962;SDS011;38827;53.024;6.596;2024-01-07T04:05:13;6.43;;;4.63;;
52962;SDS011;38827;53.024;6.596;2024-01-07T04:07:40;8.73;;;5.13;;
52962;SDS011;38827;53.024;6.596;2024-01-07T04:10:06;8.07;;;5.03;;
52962;SDS011;38827;53.024;6.596;2024-01-07T04:12:31;7.30;;;4.80;;
52962;SDS011;38827;53.024;6.596;2024-01-07T04:15:06;8.43;;;4.97;;
52962;SDS011;38827;53.024;6.596;2024-01-07T04:17:32;7.10;;;5.05;;
52962;SDS011;38827;53.024;6.596;2024-01-07T04:20:07;7.32;;;4.65;;
52962;SDS011;38827;53.024;6.596;2024-01-07T04:22:42;6.22;;;4.47;;
52962;SDS011;38827;53.024;6.596;2024-01-07T04:25:08;5.78;;;4.18;;
52962;SDS011;38827;53.024;6.596;2024-01-07T04:28:00;6.50;;;4.45;;
52962;SDS011;38827;53.024;6.596;2024-01-07T04:30:25;6.72;;;4.20;;
52962;SDS011;38827;53.024;6.596;2024-01-07T04:32:51;7.65;;;3.70;;
52962;SDS011;38827;53.024;6.596;2024-01-07T04:35:26;6.57;;;4.03;;
52962;SDS011;38827;53.024;6.596;2024-01-07T04:38:02;6.55;;;3.88;;
52962;SDS011;38827;53.024;6.596;2024-01-07T04:40:34;7.75;;;3.90;;
52962;SDS011;38827;53.024;6.596;2024-01-07T04:43:00;7.47;;;3.85;;
52962;SDS011;38827;53.024;6.596;2024-01-07T04:45:25;6.63;;;3.67;;
52962;SDS011;38827;53.024;6.596;2024-01-07T04:47:51;8.02;;;4.20;;
52962;SDS011;38827;53.024;6.596;2024-01-07T04:50:17;6.90;;;4.13;;
52962;SDS011;38827;53.024;6.596;2024-01-07T04:52:45;6.90;;;4.35;;
52962;SDS011;38827;53.024;6.596;2024-01-07T04:57:36;8.38;;;4.20;;
52962;SDS011;38827;53.024;6.596;2024-01-07T05:00:02;6.13;;;3.40;;
52962;SDS011;38827;53.024;6.596;2024-01-07T05:02:29;8.52;;;3.28;;
52962;SDS011;38827;53.024;6.596;2024-01-07T05:04:54;6.65;;;3.90;;
52962;SDS011;38827;53.024;6.596;2024-01-07T05:07:23;7.07;;;3.30;;
52962;SDS011;38827;53.024;6.596;2024-01-07T05:09:54;4.78;;;3.10;;
52962;SDS011;38827;53.024;6.596;2024-01-07T05:12:20;4.97;;;3.10;;
52962;SDS011;38827;53.024;6.596;2024-01-07T05:14:58;4.20;;;2.73;;
52962;SDS011;38827;53.024;6.596;2024-01-07T05:20:00;4.72;;;2.45;;
52962;SDS011;38827;53.024;6.596;2024-01-07T05:22:31;4.00;;;2.47;;
52962;SDS011;38827;53.024;6.596;2024-01-07T05:28:13;5.55;;;2.33;;
52962;SDS011;38827;53.024;6.596;2024-01-07T05:30:48;4.75;;;2.33;;
52962;SDS011;38827;53.024;6.596;2024-01-07T05:33:17;3.78;;;2.25;;
52962;SDS011;38827;53.024;6.596;2024-01-07T05:35:49;5.43;;;2.22;;
52962;SDS011;38827;53.024;6.596;2024-01-07T05:38:15;5.63;;;2.50;;
52962;SDS011;38827;53.024;6.596;2024-01-07T05:40:58;6.72;;;2.45;;
52962;SDS011;38827;53.024;6.596;2024-01-07T05:43:30;4.65;;;2.30;;
52962;SDS011;38827;53.024;6.596;2024-01-07T05:46:05;3.90;;;2.03;;
52962;SDS011;38827;53.024;6.596;2024-01-07T05:48:40;3.70;;;2.00;;
52962;SDS011;38827;53.024;6.596;2024-01-07T05:51:10;4.20;;;2.17;;
52962;SDS011;38827;53.024;6.596;2024-01-07T05:53:37;5.40;;;2.10;;
52962;SDS011;38827;53.024;6.596;2024-01-07T05:56:09;5.57;;;2.50;;
52962;SDS011;38827;53.024;6.596;2024-01-07T05:58:35;5.53;;;2.38;;
52962;SDS011;38827;53.024;6.596;2024-01-07T06:01:31;4.97;;;2.30;;
52962;SDS011;38827;53.024;6.596;2024-01-07T06:03:57;7.25;;;2.40;;
52962;SDS011;38827;53.024;6.596;2024-01-07T06:06:25;4.97;;;2.40;;
52962;SDS011;38827;53.024;6.596;2024-01-07T06:08:54;4.63;;;2.35;;
52962;SDS011;38827;53.024;6.596;2024-01-07T06:11:23;4.78;;;2.17;;
52962;SDS011;38827;53.024;6.596;2024-01-07T06:13:48;3.42;;;2.28;;
52962;SDS011;38827;53.024;6.596;2024-01-07T06:16:17;4.60;;;2.13;;
52962;SDS011;38827;53.024;6.596;2024-01-07T06:18:58;4.45;;;1.77;;
52962;SDS011;38827;53.024;6.596;2024-01-07T06:21:23;3.60;;;2.03;;
52962;SDS011;38827;53.024;6.596;2024-01-07T06:29:10;7.27;;;2.17;;
52962;SDS011;38827;53.024;6.596;2024-01-07T06:51:14;3.00;;;2.00;;
52962;SDS011;38827;53.024;6.596;2024-01-07T06:53:40;1.50;;;1.15;;
52962;SDS011;38827;53.024;6.596;2024-01-07T07:27:24;3.40;;;1.92;;
52962;SDS011;38827;53.024;6.596;2024-01-07T07:30:00;3.83;;;1.80;;
52962;SDS011;38827;53.024;6.596;2024-01-07T07:32:26;3.65;;;1.95;;
52962;SDS011;38827;53.024;6.596;2024-01-07T07:35:10;4.30;;;1.80;;
52962;SDS011;38827;53.024;6.596;2024-01-07T07:40:45;3.40;;;2.00;;
52962;SDS011;38827;53.024;6.596;2024-01-07T07:43:17;3.88;;;2.10;;
52962;SDS011;38827;53.024;6.596;2024-01-07T07:46:03;4.15;;;2.03;;
52962;SDS011;38827;53.024;6.596;2024-01-07T07:48:29;3.20;;;1.95;;
52962;SDS011;38827;53.024;6.596;2024-01-07T07:50:55;2.35;;;1.88;;
52962;SDS011;38827;53.024;6.596;2024-01-07T07:53:21;3.17;;;1.90;;
52962;SDS011;38827;53.024;6.596;2024-01-07T07:55:55;2.63;;;2.03;;
52962;SDS011;38827;53.024;6.596;2024-01-07T07:58:21;3.67;;;2.10;;
52962;SDS011;38827;53.024;6.596;2024-01-07T08:00:47;3.63;;;1.90;;
52962;SDS011;38827;53.024;6.596;2024-01-07T08:03:31;3.22;;;2.10;;
52962;SDS011;38827;53.024;6.596;2024-01-07T08:05:57;3.63;;;2.38;;
52962;SDS011;38827;53.024;6.596;2024-01-07T08:08:37;4.00;;;2.10;;
52962;SDS011;38827;53.024;6.596;2024-01-07T08:11:03;2.80;;;2.08;;
52962;SDS011;38827;53.024;6.596;2024-01-07T08:13:41;2.60;;;1.63;;
52962;SDS011;38827;53.024;6.596;2024-01-07T08:16:09;3.10;;;1.95;;
52962;SDS011;38827;53.024;6.596;2024-01-07T08:18:46;2.47;;;1.73;;
52962;SDS011;38827;53.024;6.596;2024-01-07T08:21:11;5.53;;;2.10;;
52962;SDS011;38827;53.024;6.596;2024-01-07T08:23:49;3.05;;;1.80;;
52962;SDS011;38827;53.024;6.596;2024-01-07T08:26:22;5.20;;;1.63;;
52962;SDS011;38827;53.024;6.596;2024-01-07T08:28:48;3.15;;;1.60;;
52962;SDS011;38827;53.024;6.596;2024-01-07T08:36:52;3.60;;;1.70;;
52962;SDS011;38827;53.024;6.596;2024-01-07T08:42:06;4.93;;;1.50;;
52962;SDS011;38827;53.024;6.596;2024-01-07T08:44:43;2.60;;;1.42;;
52962;SDS011;38827;53.024;6.596;2024-01-07T08:47:24;4.78;;;2.05;;
52962;SDS011;38827;53.024;6.596;2024-01-07T08:49:50;2.97;;;1.50;;
52962;SDS011;38827;53.024;6.596;2024-01-07T08:52:36;2.47;;;1.55;;
52962;SDS011;38827;53.024;6.596;2024-01-07T08:55:11;2.20;;;1.42;;
52962;SDS011;38827;53.024;6.596;2024-01-07T08:57:37;1.92;;;1.60;;
52962;SDS011;38827;53.024;6.596;2024-01-07T09:00:22;3.25;;;1.48;;
52962;SDS011;38827;53.024;6.596;2024-01-07T09:05:35;1.73;;;1.30;;
52962;SDS011;38827;53.024;6.596;2024-01-07T09:08:01;2.88;;;1.35;;
52962;SDS011;38827;53.024;6.596;2024-01-07T09:13:54;3.80;;;1.90;;
52962;SDS011;38827;53.024;6.596;2024-01-07T09:16:32;2.33;;;1.60;;
52962;SDS011;38827;53.024;6.596;2024-01-07T09:24:55;2.33;;;1.27;;
52962;SDS011;38827;53.024;6.596;2024-01-07T09:27:29;3.25;;;1.50;;
52962;SDS011;38827;53.024;6.596;2024-01-07T09:32:54;2.28;;;1.70;;
52962;SDS011;38827;53.024;6.596;2024-01-07T09:35:28;3.60;;;2.03;;
52962;SDS011;38827;53.024;6.596;2024-01-07T09:38:03;2.72;;;1.80;;
52962;SDS011;38827;53.024;6.596;2024-01-07T09:40:35;2.25;;;1.42;;
52962;SDS011;38827;53.024;6.596;2024-01-07T09:43:09;2.25;;;1.70;;
52962;SDS011;38827;53.024;6.596;2024-01-07T09:45:36;3.78;;;1.85;;
52962;SDS011;38827;53.024;6.596;2024-01-07T09:55:33;2.65;;;1.55;;
52962;SDS011;38827;53.024;6.596;2024-01-07T09:58:14;3.03;;;1.75;;
52962;SDS011;38827;53.024;6.596;2024-01-07T10:00:39;2.25;;;1.50;;
52962;SDS011;38827;53.024;6.596;2024-01-07T10:03:26;3.78;;;1.80;;
52962;SDS011;38827;53.024;6.596;2024-01-07T10:08:47;2.53;;;1.90;;
52962;SDS011;38827;53.024;6.596;2024-01-07T10:21:26;7.00;;;3.75;;
52962;SDS011;38827;53.024;6.596;2024-01-07T10:24:08;6.80;;;3.53;;
52962;SDS011;38827;53.024;6.596;2024-01-07T10:26:50;4.47;;;2.30;;
52962;SDS011;38827;53.024;6.596;2024-01-07T10:35:32;4.05;;;2.50;;
52962;SDS011;38827;53.024;6.596;2024-01-07T10:44:49;2.08;;;1.50;;
52962;SDS011;38827;53.024;6.596;2024-01-07T10:47:38;4.50;;;1.90;;
52962;SDS011;38827;53.024;6.596;2024-01-07T10:50:06;4.53;;;1.75;;
52962;SDS011;38827;53.024;6.596;2024-01-07T10:53:33;1.70;;;1.52;;
52962;SDS011;38827;53.024;6.596;2024-01-07T10:56:00;3.10;;;2.20;;
52962;SDS011;38827;53.024;6.596;2024-01-07T11:00:54;3.05;;;1.88;;
52962;SDS011;38827;53.024;6.596;2024-01-07T11:03:27;2.80;;;1.85;;
52962;SDS011;38827;53.024;6.596;2024-01-07T11:13:00;2.95;;;1.70;;
52962;SDS011;38827;53.024;6.596;2024-01-07T11:18:32;4.25;;;1.90;;
52962;SDS011;38827;53.024;6.596;2024-01-07T11:21:07;2.80;;;1.60;;
52962;SDS011;38827;53.024;6.596;2024-01-07T11:23:34;3.20;;;1.75;;
52962;SDS011;38827;53.024;6.596;2024-01-07T12:13:54;5.65;;;3.38;;
52962;SDS011;38827;53.024;6.596;2024-01-07T12:17:12;5.50;;;3.05;;
52962;SDS011;38827;53.024;6.596;2024-01-07T12:19:47;8.43;;;3.70;;
52962;SDS011;38827;53.024;6.596;2024-01-07T12:22:29;6.32;;;3.40;;
52962;SDS011;38827;53.024;6.596;2024-01-07T12:25:13;8.85;;;3.78;;
52962;SDS011;38827;53.024;6.596;2024-01-07T12:27:40;6.65;;;3.65;;
52962;SDS011;38827;53.024;6.596;2024-01-07T12:32:53;5.90;;;3.53;;
52962;SDS011;38827;53.024;6.596;2024-01-07T12:38:14;8.10;;;4.20;;
52962;SDS011;38827;53.024;6.596;2024-01-07T12:43:10;7.63;;;3.80;;
52962;SDS011;38827;53.024;6.596;2024-01-07T12:45:36;6.97;;;3.88;;
52962;SDS011;38827;53.024;6.596;2024-01-07T12:48:02;7.63;;;4.05;;
52962;SDS011;38827;53.024;6.596;2024-01-07T12:53:35;7.32;;;3.88;;
52962;SDS011;38827;53.024;6.596;2024-01-07T12:56:01;6.38;;;3.80;;
52962;SDS011;38827;53.024;6.596;2024-01-07T12:58:30;8.77;;;4.25;;
52962;SDS011;38827;53.024;6.596;2024-01-07T13:03:46;9.70;;;4.32;;
52962;SDS011;38827;53.024;6.596;2024-01-07T13:06:14;6.88;;;3.38;;
52962;SDS011;38827;53.024;6.596;2024-01-07T13:08:39;7.28;;;3.65;;
52962;SDS011;38827;53.024;6.596;2024-01-07T13:11:05;5.20;;;3.72;;
52962;SDS011;38827;53.024;6.596;2024-01-07T13:13:33;6.97;;;3.80;;
52962;SDS011;38827;53.024;6.596;2024-01-07T13:16:02;6.40;;;3.70;;
52962;SDS011;38827;53.024;6.596;2024-01-07T13:18:28;6.50;;;3.83;;
52962;SDS011;38827;53.024;6.596;2024-01-07T13:20:54;6.32;;;3.33;;
52962;SDS011;38827;53.024;6.596;2024-01-07T13:23:20;8.88;;;3.95;;
52962;SDS011;38827;53.024;6.596;2024-01-07T13:25:45;11.68;;;3.83;;
52962;SDS011;38827;53.024;6.596;2024-01-07T13:28:34;6.07;;;3.60;;
52962;SDS011;38827;53.024;6.596;2024-01-07T13:31:02;7.97;;;4.03;;
52962;SDS011;38827;53.024;6.596;2024-01-07T13:33:28;8.05;;;3.60;;
52962;SDS011;38827;53.024;6.596;2024-01-07T13:35:54;7.63;;;3.77;;
52962;SDS011;38827;53.024;6.596;2024-01-07T13:38:22;6.05;;;3.97;;
52962;SDS011;38827;53.024;6.596;2024-01-07T13:40:47;7.60;;;4.05;;
52962;SDS011;38827;53.024;6.596;2024-01-07T13:43:13;7.70;;;4.28;;
52962;SDS011;38827;53.024;6.596;2024-01-07T13:45:40;10.13;;;4.70;;
52962;SDS011;38827;53.024;6.596;2024-01-07T13:48:06;8.98;;;4.05;;
52962;SDS011;38827;53.024;6.596;2024-01-07T13:50:32;7.18;;;4.05;;
52962;SDS011;38827;53.024;6.596;2024-01-07T13:52:59;5.40;;;3.50;;
52962;SDS011;38827;53.024;6.596;2024-01-07T13:55:30;9.00;;;3.97;;
52962;SDS011;38827;53.024;6.596;2024-01-07T13:57:56;7.93;;;4.38;;
52962;SDS011;38827;53.024;6.596;2024-01-07T14:00:28;10.02;;;4.20;;
52962;SDS011;38827;53.024;6.596;2024-01-07T14:02:54;7.43;;;4.00;;
52962;SDS011;38827;53.024;6.596;2024-01-07T14:05:20;7.65;;;4.10;;
52962;SDS011;38827;53.024;6.596;2024-01-07T14:07:45;9.95;;;3.85;;
52962;SDS011;38827;53.024;6.596;2024-01-07T14:10:14;5.53;;;3.45;;
52962;SDS011;38827;53.024;6.596;2024-01-07T14:15:44;6.20;;;3.70;;
52962;SDS011;38827;53.024;6.596;2024-01-07T14:18:09;7.40;;;3.85;;
52962;SDS011;38827;53.024;6.596;2024-01-07T14:20:40;7.53;;;3.90;;
52962;SDS011;38827;53.024;6.596;2024-01-07T14:23:05;6.93;;;4.05;;
52962;SDS011;38827;53.024;6.596;2024-01-07T14:25:31;6.07;;;3.90;;
52962;SDS011;38827;53.024;6.596;2024-01-07T14:28:09;7.73;;;4.10;;
52962;SDS011;38827;53.024;6.596;2024-01-07T14:30:42;8.40;;;3.80;;
52962;SDS011;38827;53.024;6.596;2024-01-07T14:33:13;5.88;;;3.40;;
52962;SDS011;38827;53.024;6.596;2024-01-07T14:35:41;10.07;;;4.30;;
52962;SDS011;38827;53.024;6.596;2024-01-07T14:38:07;11.05;;;5.05;;
52962;SDS011;38827;53.024;6.596;2024-01-07T14:40:33;7.30;;;4.75;;
52962;SDS011;38827;53.024;6.596;2024-01-07T14:42:58;6.65;;;4.55;;
52962;SDS011;38827;53.024;6.596;2024-01-07T14:45:27;8.52;;;4.28;;
52962;SDS011;38827;53.024;6.596;2024-01-07T14:47:53;9.30;;;5.63;;
52962;SDS011;38827;53.024;6.596;2024-01-07T14:50:19;11.40;;;5.45;;
52962;SDS011;38827;53.024;6.596;2024-01-07T14:52:49;9.18;;;4.50;;
52962;SDS011;38827;53.024;6.596;2024-01-07T14:55:15;16.17;;;11.23;;
52962;SDS011;38827;53.024;6.596;2024-01-07T14:57:41;7.05;;;4.30;;
52962;SDS011;38827;53.024;6.596;2024-01-07T15:00:24;17.08;;;10.48;;
52962;SDS011;38827;53.024;6.596;2024-01-07T15:02:50;12.50;;;6.80;;
52962;SDS011;38827;53.024;6.596;2024-01-07T15:05:16;9.97;;;5.63;;
52962;SDS011;38827;53.024;6.596;2024-01-07T15:07:42;11.77;;;6.83;;
52962;SDS011;38827;53.024;6.596;2024-01-07T15:10:09;12.43;;;5.88;;
52962;SDS011;38827;53.024;6.596;2024-01-07T15:12:34;6.22;;;3.97;;
52962;SDS011;38827;53.024;6.596;2024-01-07T15:15:03;10.45;;;5.75;;
52962;SDS011;38827;53.024;6.596;2024-01-07T15:17:31;9.75;;;4.35;;
52962;SDS011;38827;53.024;6.596;2024-01-07T15:19:57;9.48;;;5.40;;
52962;SDS011;38827;53.024;6.596;2024-01-07T15:22:23;9.47;;;4.87;;
52962;SDS011;38827;53.024;6.596;2024-01-07T15:24:49;9.45;;;4.72;;
52962;SDS011;38827;53.024;6.596;2024-01-07T15:27:17;15.10;;;10.18;;
52962;SDS011;38827;53.024;6.596;2024-01-07T15:29:43;8.80;;;5.25;;
52962;SDS011;38827;53.024;6.596;2024-01-07T15:32:08;10.35;;;6.20;;
52962;SDS011;38827;53.024;6.596;2024-01-07T15:34:34;8.20;;;5.30;;
52962;SDS011;38827;53.024;6.596;2024-01-07T15:37:00;8.20;;;5.13;;
52962;SDS011;38827;53.024;6.596;2024-01-07T15:39:26;10.03;;;5.37;;
52962;SDS011;38827;53.024;6.596;2024-01-07T15:41:55;12.93;;;7.00;;
52962;SDS011;38827;53.024;6.596;2024-01-07T15:44:25;36.53;;;12.57;;
52962;SDS011;38827;53.024;6.596;2024-01-07T15:50:05;17.23;;;6.68;;
52962;SDS011;38827;53.024;6.596;2024-01-07T15:52:31;8.68;;;4.63;;
52962;SDS011;38827;53.024;6.596;2024-01-07T15:54:56;12.20;;;6.30;;
52962;SDS011;38827;53.024;6.596;2024-01-07T15:57:23;8.95;;;5.53;;
52962;SDS011;38827;53.024;6.596;2024-01-07T15:59:58;9.77;;;5.78;;
52962;SDS011;38827;53.024;6.596;2024-01-07T16:02:28;8.98;;;6.07;;
52962;SDS011;38827;53.024;6.596;2024-01-07T16:08:06;10.00;;;5.75;;
52962;SDS011;38827;53.024;6.596;2024-01-07T16:11:06;10.30;;;4.80;;
52962;SDS011;38827;53.024;6.596;2024-01-07T16:13:41;11.48;;;5.35;;
52962;SDS011;38827;53.024;6.596;2024-01-07T16:19:49;9.30;;;5.20;;
52962;SDS011;38827;53.024;6.596;2024-01-07T16:22:14;11.57;;;5.22;;
52962;SDS011;38827;53.024;6.596;2024-01-07T16:24:40;12.20;;;5.53;;
52962;SDS011;38827;53.024;6.596;2024-01-07T16:27:07;10.07;;;4.70;;
52962;SDS011;38827;53.024;6.596;2024-01-07T17:14:21;7.32;;;4.60;;
52962;SDS011;38827;53.024;6.596;2024-01-07T17:16:47;6.53;;;3.80;;
52962;SDS011;38827;53.024;6.596;2024-01-07T17:19:13;8.73;;;4.20;;
52962;SDS011;38827;53.024;6.596;2024-01-07T17:21:41;7.65;;;3.75;;
52962;SDS011;38827;53.024;6.596;2024-01-07T17:24:07;5.73;;;3.63;;
52962;SDS011;38827;53.024;6.596;2024-01-07T17:26:36;6.60;;;3.60;;
52962;SDS011;38827;53.024;6.596;2024-01-07T17:29:06;9.15;;;4.05;;
52962;SDS011;38827;53.024;6.596;2024-01-07T17:31:32;8.35;;;4.72;;
52962;SDS011;38827;53.024;6.596;2024-01-07T17:34:04;8.03;;;4.87;;
52962;SDS011;38827;53.024;6.596;2024-01-07T17:36:30;8.13;;;3.88;;
52962;SDS011;38827;53.024;6.596;2024-01-07T17:38:59;7.45;;;4.20;;
52962;SDS011;38827;53.024;6.596;2024-01-07T17:41:25;5.75;;;3.33;;
52962;SDS011;38827;53.024;6.596;2024-01-07T17:43:53;7.15;;;4.45;;
52962;SDS011;38827;53.024;6.596;2024-01-07T17:46:18;5.70;;;3.20;;
52962;SDS011;38827;53.024;6.596;2024-01-07T17:48:44;6.97;;;3.57;;
52962;SDS011;38827;53.024;6.596;2024-01-07T17:51:28;6.75;;;3.95;;
52962;SDS011;38827;53.024;6.596;2024-01-07T17:53:56;7.50;;;3.88;;
52962;SDS011;38827;53.024;6.596;2024-01-07T17:56:25;14.43;;;7.25;;
52962;SDS011;38827;53.024;6.596;2024-01-07T17:58:51;5.73;;;3.07;;
52962;SDS011;38827;53.024;6.596;2024-01-07T18:01:18;7.18;;;3.72;;
52962;SDS011;38827;53.024;6.596;2024-01-07T18:03:47;8.40;;;4.00;;
52962;SDS011;38827;53.024;6.596;2024-01-07T18:08:53;7.13;;;4.07;;
52962;SDS011;38827;53.024;6.596;2024-01-07T18:11:19;9.17;;;5.23;;
52962;SDS011;38827;53.024;6.596;2024-01-07T18:13:45;12.27;;;6.73;;
52962;SDS011;38827;53.024;6.596;2024-01-07T18:16:11;6.30;;;4.00;;
52962;SDS011;38827;53.024;6.596;2024-01-07T18:21:21;11.15;;;5.40;;
52962;SDS011;38827;53.024;6.596;2024-01-07T18:23:48;9.02;;;5.40;;
52962;SDS011;38827;53.024;6.596;2024-01-07T18:26:14;17.48;;;12.10;;
52962;SDS011;38827;53.024;6.596;2024-01-07T18:28:40;6.73;;;5.07;;
52962;SDS011;38827;53.024;6.596;2024-01-07T18:31:07;6.90;;;4.55;;
52962;SDS011;38827;53.024;6.596;2024-01-07T18:33:33;8.77;;;5.80;;
52962;SDS011;38827;53.024;6.596;2024-01-07T18:35:58;7.67;;;4.73;;
52962;SDS011;38827;53.024;6.596;2024-01-07T18:38:25;12.45;;;7.00;;
52962;SDS011;38827;53.024;6.596;2024-01-07T18:40:51;10.43;;;6.25;;
52962;SDS011;38827;53.024;6.596;2024-01-07T18:43:17;9.63;;;5.80;;
52962;SDS011;38827;53.024;6.596;2024-01-07T18:45:45;8.15;;;4.97;;
52962;SDS011;38827;53.024;6.596;2024-01-07T18:48:11;8.27;;;5.75;;
52962;SDS011;38827;53.024;6.596;2024-01-07T18:50:38;8.02;;;4.90;;
52962;SDS011;38827;53.024;6.596;2024-01-07T18:53:04;7.30;;;4.80;;
52962;SDS011;38827;53.024;6.596;2024-01-07T18:55:29;15.33;;;8.60;;
52962;SDS011;38827;53.024;6.596;2024-01-07T18:57:56;8.00;;;4.88;;
52962;SDS011;38827;53.024;6.596;2024-01-07T19:00:22;5.90;;;4.28;;
52962;SDS011;38827;53.024;6.596;2024-01-07T19:02:48;5.13;;;3.83;;
52962;SDS011;38827;53.024;6.596;2024-01-07T19:05:30;7.45;;;5.13;;
52962;SDS011;38827;53.024;6.596;2024-01-07T19:07:56;7.47;;;4.20;;
52962;SDS011;38827;53.024;6.596;2024-01-07T19:10:29;5.45;;;4.20;;
52962;SDS011;38827;53.024;6.596;2024-01-07T19:12:56;6.18;;;4.35;;
52962;SDS011;38827;53.024;6.596;2024-01-07T19:15:30;7.20;;;4.32;;
52962;SDS011;38827;53.024;6.596;2024-01-07T19:18:12;5.82;;;4.13;;
52962;SDS011;38827;53.024;6.596;2024-01-07T19:20:40;8.25;;;5.15;;
52962;SDS011;38827;53.024;6.596;2024-01-07T19:23:10;5.75;;;4.53;;
52962;SDS011;38827;53.024;6.596;2024-01-07T19:25:40;8.93;;;4.55;;
52962;SDS011;38827;53.024;6.596;2024-01-07T19:28:06;6.10;;;4.93;;
52962;SDS011;38827;53.024;6.596;2024-01-07T19:30:41;5.75;;;4.40;;
52962;SDS011;38827;53.024;6.596;2024-01-07T19:33:12;8.40;;;4.78;;
52962;SDS011;38827;53.024;6.596;2024-01-07T19:35:38;7.20;;;4.70;;
52962;SDS011;38827;53.024;6.596;2024-01-07T19:38:09;9.73;;;5.30;;
52962;SDS011;38827;53.024;6.596;2024-01-07T19:40:47;17.25;;;9.85;;
52962;SDS011;38827;53.024;6.596;2024-01-07T19:43:13;13.50;;;9.38;;
52962;SDS011;38827;53.024;6.596;2024-01-07T19:48:10;11.82;;;5.15;;
52962;SDS011;38827;53.024;6.596;2024-01-07T19:50:36;23.02;;;12.52;;
52962;SDS011;38827;53.024;6.596;2024-01-07T19:53:04;7.30;;;5.13;;
52962;SDS011;38827;53.024;6.596;2024-01-07T20:08:36;9.40;;;3.97;;
52962;SDS011;38827;53.024;6.596;2024-01-07T20:11:02;5.43;;;3.60;;
52962;SDS011;38827;53.024;6.596;2024-01-07T20:13:29;4.10;;;3.30;;
52962;SDS011;38827;53.024;6.596;2024-01-07T20:16:03;6.15;;;3.40;;
52962;SDS011;38827;53.024;6.596;2024-01-07T20:18:32;4.40;;;3.27;;
52962;SDS011;38827;53.024;6.596;2024-01-07T20:20:58;6.65;;;3.67;;